createdAt,value
2018-09-08T00:01:26.005Z,13.38
2018-09-08T00:03:59.852Z,13.42
2018-09-08T00:06:34.234Z,13.41
2018-09-08T00:09:07.748Z,13.47
2018-09-08T00:11:40.961Z,13.51
2018-09-08T00:14:14.031Z,13.48
2018-09-08T00:16:49.769Z,13.57
2018-09-08T00:19:26.230Z,13.39
2018-09-08T00:22:03.541Z,13.22
2018-09-08T00:24:40.024Z,13.30
2018-09-08T00:27:12.116Z,13.25
2018-09-08T00:29:47.620Z,13.23
2018-09-08T00:32:20.535Z,13.35
2018-09-08T00:34:51.109Z,13.27
2018-09-08T00:37:23.374Z,13.41
2018-09-08T00:39:54.462Z,13.26
2018-09-08T00:42:30.335Z,13.42
2018-09-08T00:45:01.483Z,13.39
2018-09-08T00:47:32.709Z,13.24
2018-09-08T00:50:04.318Z,13.21
2018-09-08T00:52:36.123Z,13.47
2018-09-08T00:55:08.880Z,13.51
2018-09-08T00:57:41.068Z,13.49
2018-09-08T01:00:12.590Z,13.32
2018-09-08T01:02:48.668Z,13.39
2018-09-08T01:05:20.623Z,13.28
2018-09-08T01:07:52.773Z,13.34
2018-09-08T01:10:24.550Z,13.18
2018-09-08T01:12:56.064Z,13.01
2018-09-08T01:15:27.134Z,13.22
2018-09-08T01:17:59.755Z,13.03
2018-09-08T01:20:31.266Z,13.06
2018-09-08T01:23:02.405Z,13.05
2018-09-08T01:25:32.838Z,13.07
2018-09-08T01:28:02.960Z,13.03
2018-09-08T01:30:33.463Z,12.86
2018-09-08T01:33:04.527Z,12.61
2018-09-08T01:35:38.961Z,12.43
2018-09-08T01:38:10.086Z,12.64
2018-09-08T01:40:40.399Z,12.65
2018-09-08T01:43:11.626Z,12.80
2018-09-08T01:45:46.101Z,12.70
2018-09-08T01:48:17.403Z,12.53
2018-09-08T01:50:58.225Z,12.60
2018-09-08T01:53:31.472Z,12.50
2018-09-08T01:56:03.177Z,12.54
2018-09-08T01:58:35.647Z,12.53
2018-09-08T02:01:09.080Z,12.56
2018-09-08T02:03:40.816Z,12.67
2018-09-08T02:06:11.365Z,12.79
2018-09-08T02:08:42.974Z,12.80
2018-09-08T02:11:14.345Z,12.77
2018-09-08T02:13:46.105Z,12.65
2018-09-08T02:16:18.036Z,12.66
2018-09-08T02:18:48.661Z,12.34
2018-09-08T02:21:22.498Z,12.61
2018-09-08T02:23:54.873Z,12.56
2018-09-08T02:26:28.036Z,12.56
2018-09-08T02:29:00.214Z,12.80
2018-09-08T02:31:32.290Z,12.43
2018-09-08T02:34:03.697Z,12.81
2018-09-08T02:36:37.440Z,12.69
2018-09-08T02:39:11.656Z,12.65
2018-09-08T02:41:43.774Z,12.61
2018-09-08T02:44:14.370Z,12.61
2018-09-08T02:46:51.033Z,12.53
2018-09-08T02:49:22.111Z,12.68
2018-09-08T02:51:51.067Z,12.58
2018-09-08T02:54:20.374Z,12.72
2018-09-08T02:56:49.304Z,12.62
2018-09-08T02:59:19.642Z,12.88
2018-09-08T03:01:50.418Z,12.91
2018-09-08T03:04:19.715Z,12.70
2018-09-08T03:06:48.130Z,12.59
2018-09-08T03:22:34.608Z,12.43
2018-09-08T03:25:03.092Z,12.44
2018-09-08T03:27:33.004Z,12.44
2018-09-08T03:30:01.281Z,12.40
2018-09-08T03:32:31.763Z,12.40
2018-09-08T03:35:00.399Z,12.39
2018-09-08T03:37:28.864Z,12.24
2018-09-08T03:39:57.253Z,12.22
2018-09-08T03:42:26.468Z,12.29
2018-09-08T03:44:55.677Z,12.25
2018-09-08T03:47:23.746Z,12.21
2018-09-08T03:49:53.950Z,12.28
2018-09-08T03:52:23.134Z,12.32
2018-09-08T03:54:52.126Z,12.33
2018-09-08T03:57:20.307Z,12.28
2018-09-08T03:59:48.881Z,12.36
2018-09-08T04:02:17.051Z,12.43
2018-09-08T04:04:49.070Z,12.34
2018-09-08T04:07:20.058Z,12.52
2018-09-08T04:09:53.272Z,12.30
2018-09-08T04:12:23.486Z,12.42
2018-09-08T04:14:55.160Z,12.37
2018-09-08T04:17:25.865Z,12.41
2018-09-08T04:19:57.659Z,12.30
2018-09-08T04:22:31.946Z,12.24
2018-09-08T04:25:03.195Z,12.43
2018-09-08T04:27:38.333Z,12.37
2018-09-08T04:30:08.850Z,12.23
2018-09-08T04:32:41.180Z,12.18
2018-09-08T04:35:12.569Z,12.17
2018-09-08T04:37:42.882Z,12.30
2018-09-08T04:40:13.328Z,12.26
2018-09-08T04:42:43.465Z,12.22
2018-09-08T04:45:13.680Z,12.27
2018-09-08T04:47:43.893Z,12.22
2018-09-08T04:50:14.197Z,12.11
2018-09-08T04:52:44.525Z,12.19
2018-09-08T04:55:17.930Z,12.06
2018-09-08T04:57:48.668Z,12.35
2018-09-08T05:00:19.184Z,12.34
2018-09-08T05:02:49.833Z,12.37
2018-09-08T05:05:20.477Z,12.22
2018-09-08T05:07:51.006Z,12.29
2018-09-08T05:10:22.125Z,12.20
2018-09-08T05:12:53.157Z,12.22
2018-09-08T05:15:24.454Z,12.29
2018-09-08T05:17:55.495Z,12.31
2018-09-08T05:20:26.160Z,12.30
2018-09-08T05:22:57.251Z,12.52
2018-09-08T05:25:28.162Z,12.55
2018-09-08T05:27:59.542Z,12.42
2018-09-08T05:30:31.029Z,12.53
2018-09-08T05:33:01.495Z,12.44
2018-09-08T05:35:32.544Z,12.60
2018-09-08T05:41:01.767Z,12.51
2018-09-08T05:43:33.525Z,12.23
2018-09-08T05:46:05.283Z,12.40
2018-09-08T05:48:45.264Z,12.65
2018-09-08T05:51:16.252Z,12.58
2018-09-08T05:53:47.177Z,12.70
2018-09-08T05:56:17.952Z,12.72
2018-09-08T05:58:49.810Z,12.70
2018-09-08T06:04:22.100Z,12.58
2018-09-08T06:06:58.471Z,12.52
2018-09-08T06:09:39.171Z,12.59
2018-09-08T06:12:10.858Z,12.56
2018-09-08T06:14:59.320Z,12.61
2018-09-08T06:17:30.663Z,12.48
2018-09-08T06:20:22.298Z,12.76
2018-09-08T06:23:09.665Z,12.88
2018-09-08T06:26:00.974Z,12.60
2018-09-08T06:28:37.500Z,12.85
2018-09-08T06:31:14.925Z,12.87
2018-09-08T06:33:48.249Z,12.77
2018-09-08T06:36:19.296Z,12.84
2018-09-08T06:38:51.086Z,12.93
2018-09-08T06:41:26.965Z,12.90
2018-09-08T06:43:59.825Z,12.87
2018-09-08T06:46:30.335Z,12.87
2018-09-08T06:49:05.468Z,12.90
2018-09-08T06:51:37.330Z,13.01
2018-09-08T06:54:08.912Z,12.92
2018-09-08T06:56:39.670Z,13.13
2018-09-08T07:16:50.992Z,14.18
2018-09-08T07:19:23.600Z,13.85
2018-09-08T07:21:56.406Z,14.11
2018-09-08T07:24:26.995Z,14.47
2018-09-08T07:26:58.055Z,14.86
2018-09-08T07:29:32.460Z,15.47
2018-09-08T07:32:06.583Z,15.11
2018-09-08T07:34:37.100Z,15.05
2018-09-08T07:37:10.779Z,15.05
2018-09-08T07:39:41.127Z,14.78
2018-09-08T07:42:17.415Z,14.60
2018-09-08T07:44:49.038Z,14.53
2018-09-08T07:47:21.009Z,14.73
2018-09-08T07:49:51.641Z,14.66
2018-09-08T07:52:24.945Z,14.66
2018-09-08T07:54:55.140Z,14.48
2018-09-08T08:42:33.156Z,15.76
2018-09-08T08:45:05.717Z,15.46
2018-09-08T08:47:36.033Z,15.65
2018-09-08T08:50:22.667Z,15.46
2018-09-08T08:53:09.878Z,15.68
2018-09-08T08:55:40.194Z,15.55
2018-09-08T08:58:10.610Z,15.62
2018-09-08T09:00:40.914Z,15.79
2018-09-08T09:03:17.929Z,15.66
2018-09-08T09:05:51.471Z,15.85
2018-09-08T09:08:22.431Z,15.61
2018-09-08T09:10:54.602Z,15.66
2018-09-08T09:16:27.454Z,15.87
2018-09-08T09:19:36.593Z,16.03
2018-09-08T09:24:34.097Z,16.00
2018-09-08T09:36:20.165Z,16.09
2018-09-08T09:38:53.574Z,16.12
2018-09-08T09:41:35.574Z,16.33
2018-09-08T09:44:06.293Z,16.24
2018-09-08T09:46:50.763Z,16.37
2018-09-08T09:49:27.897Z,16.64
2018-09-08T09:51:58.925Z,16.45
2018-09-08T09:54:29.397Z,16.58
2018-09-08T09:57:00.042Z,16.68
2018-09-08T09:59:30.554Z,17.09
2018-09-08T10:02:07.968Z,16.99
2018-09-08T10:04:39.515Z,16.87
2018-09-08T10:07:11.887Z,17.00
2018-09-08T10:09:42.209Z,17.03
2018-09-08T10:12:16.404Z,16.98
2018-09-08T10:14:47.546Z,17.06
2018-09-08T10:17:17.996Z,17.21
2018-09-08T10:19:48.621Z,17.05
2018-09-08T10:22:18.740Z,17.27
2018-09-08T10:24:49.796Z,17.40
2018-09-08T10:27:20.415Z,17.64
2018-09-08T10:29:51.162Z,17.64
2018-09-08T10:32:28.854Z,17.69
2018-09-08T10:35:00.618Z,17.79
2018-09-08T10:37:35.656Z,18.05
2018-09-08T10:40:07.499Z,18.32
2018-09-08T10:42:40.087Z,18.38
2018-09-08T10:45:10.723Z,18.39
2018-09-08T10:47:40.920Z,18.26
2018-09-08T10:50:16.786Z,18.27
2018-09-08T10:52:49.502Z,18.49
2018-09-08T10:55:20.788Z,18.33
2018-09-08T10:57:53.823Z,18.25
2018-09-08T11:00:24.965Z,18.26
2018-09-08T11:02:55.580Z,18.32
2018-09-08T11:05:26.923Z,18.36
2018-09-08T11:07:57.569Z,18.53
2018-09-08T11:10:28.520Z,18.84
2018-09-08T11:12:58.756Z,18.69
2018-09-08T11:15:29.706Z,18.54
2018-09-08T11:18:06.951Z,18.59
2018-09-08T11:20:37.370Z,18.77
2018-09-08T11:23:08.550Z,18.73
2018-09-08T11:25:40.111Z,18.61
2018-09-08T11:28:14.647Z,18.71
2018-09-08T11:30:45.734Z,18.83
2018-09-08T11:33:17.957Z,18.71
2018-09-08T11:35:48.416Z,18.84
2018-09-08T11:38:24.891Z,18.92
2018-09-08T11:43:30.242Z,18.94
2018-09-08T11:46:00.720Z,19.13
2018-09-08T11:48:32.208Z,18.98
2018-09-08T11:51:02.815Z,18.95
2018-09-08T11:53:33.517Z,18.84
2018-09-08T11:56:09.088Z,19.09
2018-09-08T11:58:39.981Z,19.06
2018-09-08T12:01:14.079Z,19.15
2018-09-08T12:03:58.469Z,18.98
2018-09-08T12:06:35.036Z,18.97
2018-09-08T12:09:39.329Z,19.15
2018-09-08T12:12:18.182Z,19.32
2018-09-08T12:14:55.915Z,19.32
2018-09-08T12:17:29.714Z,19.45
2018-09-08T12:27:59.387Z,19.46
2018-09-08T12:30:39.770Z,19.23
2018-09-08T12:48:50.963Z,19.03
2018-09-08T12:51:23.925Z,19.17
2018-09-08T12:53:58.651Z,19.22
2018-09-08T12:56:32.417Z,19.44
2018-09-08T12:59:08.692Z,19.13
2018-09-08T13:01:51.118Z,19.11
2018-09-08T13:04:25.212Z,19.07
2018-09-08T13:07:00.347Z,18.99
2018-09-08T13:09:34.403Z,18.98
2018-09-08T13:12:15.337Z,19.05
2018-09-08T13:14:55.540Z,18.91
2018-09-08T13:20:39.204Z,18.96
2018-09-08T13:23:17.847Z,19.15
2018-09-08T13:25:50.302Z,19.28
2018-09-08T13:41:53.192Z,19.10
2018-09-08T13:44:27.980Z,19.05
2018-09-08T13:47:00.677Z,19.14
2018-09-08T13:49:34.023Z,19.22
2018-09-08T13:52:11.900Z,18.99
2018-09-08T13:54:44.847Z,19.05
2018-09-08T13:57:21.425Z,18.93
2018-09-08T14:00:03.983Z,18.97
2018-09-08T14:02:38.476Z,19.07
2018-09-08T14:06:44.067Z,19.13
2018-09-08T14:09:19.043Z,19.14
2018-09-08T14:11:53.970Z,19.11
2018-09-08T14:14:27.938Z,18.96
2018-09-08T14:17:01.880Z,19.01
2018-09-08T14:19:34.598Z,19.10
2018-09-08T14:22:08.612Z,19.25
2018-09-08T14:24:38.932Z,19.33
2018-09-08T14:27:09.420Z,19.38
2018-09-08T14:29:40.698Z,19.36
2018-09-08T14:32:13.258Z,19.23
2018-09-08T14:34:45.656Z,19.18
2018-09-08T14:37:17.573Z,19.14
2018-09-08T14:39:50.274Z,19.03
2018-09-08T14:42:21.448Z,19.08
2018-09-08T14:44:53.266Z,19.19
2018-09-08T14:47:25.759Z,19.25
2018-09-08T14:49:58.560Z,19.29
2018-09-08T14:52:31.058Z,19.13
2018-09-08T14:55:02.785Z,19.04
2018-09-08T14:57:34.548Z,19.03
2018-09-08T15:00:06.685Z,19.11
2018-09-08T15:02:42.013Z,19.09
2018-09-08T15:05:12.513Z,19.09
2018-09-08T15:08:00.433Z,18.91
2018-09-08T15:23:50.869Z,18.96
2018-09-08T15:26:22.196Z,19.18
2018-09-08T15:28:53.701Z,19.14
2018-09-08T15:31:24.373Z,19.22
2018-09-08T15:33:55.481Z,19.30
2018-09-08T15:36:26.427Z,19.18
2018-09-08T15:39:00.417Z,19.06
2018-09-08T15:41:31.834Z,18.98
2018-09-08T15:44:01.982Z,18.98
2018-09-08T15:46:33.075Z,18.93
2018-09-08T15:49:04.625Z,18.98
2018-09-08T15:51:35.152Z,19.06
2018-09-08T15:54:07.153Z,19.19
2018-09-08T15:56:38.241Z,19.17
2018-09-08T15:59:08.556Z,19.18
2018-09-08T16:01:40.087Z,19.09
2018-09-08T16:04:13.429Z,18.92
2018-09-08T16:06:44.162Z,18.90
2018-09-08T16:11:51.363Z,18.68
2018-09-08T16:14:24.519Z,18.77
2018-09-08T16:16:56.521Z,18.83
2018-09-08T16:19:28.139Z,18.78
2018-09-08T16:21:59.144Z,18.72
2018-09-08T16:24:29.492Z,18.77
2018-09-08T16:27:01.201Z,18.67
2018-09-08T16:29:33.104Z,18.73
2018-09-08T16:32:03.487Z,18.69
2018-09-08T16:34:35.068Z,18.49
2018-09-08T16:37:07.113Z,18.43
2018-09-08T16:39:38.885Z,18.42
2018-09-08T16:42:09.386Z,18.38
2018-09-08T16:44:43.308Z,18.37
2018-09-08T16:47:13.968Z,18.36
2018-09-08T16:49:45.289Z,18.31
2018-09-08T16:52:17.051Z,18.19
2018-09-08T16:54:49.808Z,18.16
2018-09-08T16:57:21.702Z,18.20
2018-09-08T16:59:55.825Z,18.14
2018-09-08T17:02:27.469Z,18.12
2018-09-08T17:04:58.371Z,18.12
2018-09-08T17:07:29.957Z,18.08
2018-09-08T17:10:00.828Z,18.05
2018-09-08T17:12:34.907Z,18.04
2018-09-08T17:15:08.016Z,18.01
2018-09-08T17:17:39.002Z,18.00
2018-09-08T17:20:10.353Z,17.87
2018-09-08T17:22:41.371Z,17.91
2018-09-08T17:25:12.387Z,17.83
2018-09-08T17:27:43.403Z,17.84
2018-09-08T17:30:14.334Z,17.82
2018-09-08T17:32:45.787Z,17.70
2018-09-08T17:35:22.569Z,17.76
2018-09-08T17:37:54.033Z,17.75
2018-09-08T17:40:27.824Z,17.73
2018-09-08T17:43:00.327Z,17.66
2018-09-08T17:45:30.894Z,17.60
2018-09-08T17:48:03.997Z,17.70
2018-09-08T17:50:34.960Z,17.62
2018-09-08T17:53:05.585Z,17.49
2018-09-08T17:58:29.195Z,17.37
2018-09-08T18:01:01.235Z,17.38
2018-09-08T18:06:10.055Z,17.31
2018-09-08T18:08:42.148Z,17.33
2018-09-08T18:11:15.856Z,17.27
2018-09-08T18:13:54.205Z,17.28
2018-09-08T18:16:25.499Z,17.23
2018-09-08T18:18:56.626Z,17.26
2018-09-08T18:21:27.575Z,17.25
2018-09-08T18:24:00.054Z,17.17
2018-09-08T18:26:31.271Z,17.14
2018-09-08T18:29:02.763Z,17.15
2018-09-08T18:31:35.312Z,17.17
2018-09-08T18:34:09.564Z,17.16
2018-09-08T18:36:44.823Z,17.08
2018-09-08T18:39:16.635Z,17.06
2018-09-08T18:41:54.965Z,17.09
2018-09-08T18:44:32.069Z,17.09
2018-09-08T18:47:10.171Z,17.10
2018-09-08T18:49:42.736Z,17.08
2018-09-08T18:55:07.862Z,16.98
2018-09-08T18:57:43.422Z,17.00
2018-09-08T19:00:16.194Z,16.96
2018-09-08T19:02:53.675Z,16.96
2018-09-08T19:05:25.219Z,16.99
2018-09-08T19:07:58.944Z,17.03
2018-09-08T19:10:37.958Z,17.04
2018-09-08T19:13:12.841Z,17.00
2018-09-08T19:15:44.083Z,17.04
2018-09-08T19:18:15.928Z,17.07
2018-09-08T19:20:48.652Z,17.02
2018-09-08T19:23:19.834Z,17.02
2018-09-08T19:25:51.843Z,16.98
2018-09-08T19:28:22.439Z,16.89
2018-09-08T19:31:01.699Z,16.86
2018-09-08T19:33:37.369Z,16.94
2018-09-08T19:36:09.129Z,17.00
2018-09-08T19:38:42.142Z,17.01
2018-09-08T19:41:15.044Z,17.07
2018-09-08T19:43:45.670Z,17.15
2018-09-08T19:46:21.480Z,17.10
2018-09-08T19:48:52.211Z,17.10
2018-09-08T19:51:25.395Z,17.19
2018-09-08T19:53:58.642Z,17.20
2018-09-08T19:56:36.395Z,17.20
2018-09-08T19:59:15.232Z,17.23
2018-09-08T20:01:47.253Z,17.17
2018-09-08T20:04:17.832Z,17.15
2018-09-08T20:06:51.438Z,17.21
2018-09-08T20:09:24.861Z,17.10
2018-09-08T20:11:55.550Z,16.96
2018-09-08T20:14:26.409Z,17.02
2018-09-08T20:16:58.594Z,17.14
2018-09-08T20:22:16.308Z,17.06
2018-09-08T20:24:47.980Z,17.08
2018-09-08T20:27:19.739Z,17.12
2018-09-08T20:29:52.193Z,17.08
2018-09-08T20:32:28.248Z,17.11
2018-09-08T20:35:00.293Z,17.19
2018-09-08T20:37:33.009Z,17.07
2018-09-08T20:40:04.551Z,16.98
2018-09-08T20:42:36.704Z,17.03
2018-09-08T20:45:10.311Z,17.03
2018-09-08T20:47:42.911Z,17.03
2018-09-08T20:50:15.959Z,16.98
2018-09-08T20:52:47.515Z,17.04
2018-09-08T20:55:19.607Z,17.02
2018-09-08T20:57:52.435Z,16.94
2018-09-08T21:00:25.233Z,16.97
2018-09-08T21:02:57.488Z,16.95
2018-09-08T21:05:28.896Z,16.92
2018-09-08T21:07:59.633Z,16.93
2018-09-08T21:10:29.910Z,16.86
2018-09-08T21:13:00.474Z,16.76
2018-09-08T21:15:30.994Z,16.74
2018-09-08T21:18:01.734Z,16.52
2018-09-08T21:20:33.287Z,16.46
2018-09-08T21:23:03.917Z,16.54
2018-09-08T21:25:34.554Z,16.56
2018-09-08T21:28:06.999Z,16.58
2018-09-08T21:30:38.988Z,16.63
2018-09-08T21:33:10.325Z,16.67
2018-09-08T21:35:40.840Z,16.78
2018-09-08T21:38:11.680Z,16.83
2018-09-08T21:40:43.595Z,16.58
2018-09-08T21:43:15.144Z,16.70
2018-09-08T21:45:47.180Z,16.69
2018-09-08T21:48:19.351Z,16.78
2018-09-08T21:50:55.890Z,16.87
2018-09-08T21:53:36.042Z,16.70
2018-09-08T21:56:13.129Z,16.75
2018-09-08T21:58:45.347Z,16.68
2018-09-08T22:01:21.873Z,16.69
2018-09-08T22:03:59.581Z,16.65
2018-09-08T22:06:34.112Z,16.71
2018-09-08T22:09:08.758Z,16.82
2018-09-08T22:11:39.639Z,16.79
2018-09-08T22:14:11.713Z,16.62
2018-09-08T22:16:45.701Z,16.44
2018-09-08T22:19:19.223Z,16.47
2018-09-08T22:24:27.143Z,16.28
2018-09-08T22:27:01.133Z,16.33
2018-09-08T22:29:33.322Z,16.32
2018-09-08T22:32:07.566Z,16.27
2018-09-08T22:34:40.144Z,16.42
2018-09-08T22:37:14.091Z,16.28
2018-09-08T22:39:47.135Z,16.19
2018-09-08T22:42:18.797Z,16.17
2018-09-08T22:44:50.756Z,16.10
2018-09-08T23:00:26.437Z,16.14
2018-09-08T23:02:57.511Z,16.09
2018-09-08T23:05:29.498Z,16.00
2018-09-08T23:08:01.153Z,15.85
2018-09-08T23:10:33.481Z,15.88
2018-09-08T23:13:04.285Z,15.79
2018-09-08T23:15:34.407Z,15.81
2018-09-08T23:18:07.463Z,15.85
2018-09-08T23:20:43.050Z,15.74
2018-09-08T23:26:00.074Z,15.68
2018-09-08T23:28:30.614Z,15.72
2018-09-08T23:31:04.403Z,15.73
2018-09-08T23:33:38.448Z,15.77
2018-09-08T23:36:13.983Z,15.82
2018-09-08T23:38:45.772Z,15.79
2018-09-08T23:41:34.813Z,15.79
2018-09-08T23:44:05.521Z,15.79
2018-09-08T23:46:37.579Z,15.75
2018-09-08T23:49:09.355Z,15.72
2018-09-08T23:51:42.329Z,15.79
2018-09-08T23:54:13.093Z,15.70
2018-09-08T23:56:45.743Z,15.77
2018-09-08T23:59:16.368Z,15.71
